Time;durP1;ratioP1;P1;durP2;ratioP2;P2;SDS_P1;SDS_P2;PMS_P1;PMS_P2;Temp;Humidity;BMP_temperature;BMP_pressure;BME280_temperature;BME280_humidity;BME280_pressure;Samples;Min_cycle;Max_cycle;Signal;HPM_P1;HPM_P2
2022/12/26 00:01:53;;;;;;;;;;;;;;;-144.99;100.00;52590.78;5005789;28;19937;-70
2022/12/26 00:04:20;;;;;;;;;;;;;;;-144.99;100.00;52596.88;5000457;28;19947;-71
2022/12/26 00:06:47;;;;;;;;;;;;;;;-144.99;100.00;52631.53;5005282;28;19946;-70
2022/12/26 00:09:13;;;;;;;;;;;;;;;-144.99;100.00;52631.53;5001806;28;20511;-70
2022/12/26 00:11:40;;;;;;;;;;;;;;;-144.99;100.00;52615.25;5008009;28;19974;-70
2022/12/26 00:14:08;;;;;;;;;;;;;;;-144.99;100.00;52619.31;5006172;28;20002;-70
2022/12/26 00:16:34;;;;;;;;;;;;;;;-144.99;100.00;52643.78;5004712;28;19941;-70
2022/12/26 00:19:03;;;;;;;;;;;;;;;-144.99;100.00;52639.69;5005805;28;20073;-72
2022/12/26 00:21:30;;;;;;;;;;;;;;;-144.99;100.00;52611.16;5003122;28;19972;-72
2022/12/26 00:23:58;;;;;;;;;;;;;;;-144.99;100.00;52617.28;5003639;28;19945;-70
2022/12/26 00:26:25;;;;;;;;;;;;;;;-144.99;100.00;52623.38;5001998;28;19942;-69
2022/12/26 00:28:53;;;;;;;;;;;;;;;-144.99;100.00;52635.63;5004313;28;19965;-70
2022/12/26 00:31:21;;;;;;;;;;;;;;;-144.99;100.00;52631.53;5002715;28;19950;-70
2022/12/26 00:33:48;;;;;;;;;;;;;;;-144.99;100.00;52660.09;5002467;28;19989;-70
2022/12/26 00:36:17;;;;;;;;;;;;;;;-144.99;100.00;52635.63;4994954;28;19943;-70
2022/12/26 00:38:44;;;;;;;;;;;;;;;-144.99;100.00;52651.94;5002155;28;19957;-72
2022/12/26 00:41:12;;;;;;;;;;;;;;;-144.99;100.00;52594.84;5000508;28;19949;-70
2022/12/26 00:43:39;;;;;;;;;;;;;;;-144.99;100.00;52603.00;4998871;28;19963;-71
2022/12/26 00:46:06;;;;;;;;;;;;;;;-144.99;100.00;52649.88;5005416;28;19953;-72
2022/12/26 00:48:33;;;;;;;;;;;;;;;-144.99;100.00;52656.00;5004771;28;19951;-71
2022/12/26 00:51:00;;;;;;;;;;;;;;;-144.99;100.00;52643.78;5005368;28;19952;-72
2022/12/26 00:53:28;;;;;;;;;;;;;;;-144.99;100.00;52603.00;4993720;28;19958;-68
2022/12/26 00:55:54;;;;;;;;;;;;;;;-144.99;100.00;52598.94;5013940;23;20431;-65
2022/12/26 00:58:22;;;;;;;;;;;;;;;-144.99;100.00;52639.69;5007504;28;20066;-65
2022/12/26 01:00:48;;;;;;;;;;;;;;;-144.99;100.00;52631.53;5012862;28;19960;-65
2022/12/26 01:03:15;;;;;;;;;;;;;;;-144.99;100.00;52619.31;5007710;28;20011;-64
2022/12/26 01:05:42;;;;;;;;;;;;;;;-144.99;100.00;52653.97;5005026;28;19948;-64
2022/12/26 01:08:08;;;;;;;;;;;;;;;-144.99;100.00;52623.38;5009296;28;19962;-64
2022/12/26 01:10:36;;;;;;;;;;;;;;;-144.99;100.00;52627.47;5007279;28;19971;-65
2022/12/26 01:13:03;;;;;;;;;;;;;;;-144.99;100.00;52627.47;5009607;28;19943;-65
2022/12/26 01:15:29;;;;;;;;;;;;;;;-144.99;100.00;52668.22;5004645;28;19943;-65
2022/12/26 01:17:58;;;;;;;;;;;;;;;-144.99;100.00;52649.88;5005659;28;20287;-65
2022/12/26 01:20:24;;;;;;;;;;;;;;;-144.99;100.00;52603.00;5004778;28;20544;-63
2022/12/26 01:22:51;;;;;;;;;;;;;;;-144.99;100.00;52594.84;5006385;28;19949;-62
2022/12/26 01:25:17;;;;;;;;;;;;;;;-144.99;100.00;52580.59;5005319;28;20018;-63
2022/12/26 01:27:45;;;;;;;;;;;;;;;-144.99;100.00;52629.50;5006029;28;20013;-73
2022/12/26 01:30:12;;;;;;;;;;;;;;;-144.99;100.00;52641.72;5004538;28;19965;-73
2022/12/26 01:32:39;;;;;;;;;;;;;;;-144.99;100.00;52615.25;5000440;28;19942;-73
2022/12/26 01:35:06;;;;;;;;;;;;;;;-144.99;100.00;52643.78;5010354;28;19998;-71
2022/12/26 01:37:32;;;;;;;;;;;;;;;-144.99;100.00;52643.78;5007959;28;19948;-70
2022/12/26 01:39:59;;;;;;;;;;;;;;;-144.99;100.00;52631.53;5015239;28;19977;-71
2022/12/26 01:42:26;;;;;;;;;;;;;;;-144.99;100.00;52641.72;5013866;28;20406;-69
2022/12/26 01:45:01;;;;;;;;;;;;;;;-144.99;100.00;52623.38;5000457;28;19942;-68
2022/12/26 01:47:35;;;;;;;;;;;;;;;-144.99;100.00;52623.38;4660693;28;9999955;-70
2022/12/26 01:50:02;;;;;;;;;;;;;;;-144.99;100.00;52617.28;5006533;28;19970;-70
2022/12/26 01:52:32;;;;;;;;;;;;;;;-144.99;100.00;52623.38;5005114;28;19943;-70
2022/12/26 01:54:59;;;;;;;;;;;;;;;-144.99;100.00;52631.53;5005798;28;20025;-69
2022/12/26 01:57:28;;;;;;;;;;;;;;;-144.99;100.00;52627.47;5008460;28;20303;-69
2022/12/26 01:59:56;;;;;;;;;;;;;;;-144.99;100.00;52603.00;5004654;28;20045;-69
2022/12/26 02:02:27;;;;;;;;;;;;;;;-144.99;100.00;52613.19;5007131;28;19943;-69
2022/12/26 02:07:40;;;;;;;;;;;;;;;-144.99;100.00;52623.38;5008996;28;19969;-69
2022/12/26 02:10:09;;;;;;;;;;;;;;;-144.99;100.00;52596.88;5009783;28;20042;-70
2022/12/26 02:12:36;;;;;;;;;;;;;;;-144.99;100.00;52623.38;5008410;28;19949;-70
2022/12/26 02:15:03;;;;;;;;;;;;;;;-144.99;100.00;52582.63;5007703;28;19954;-70
2022/12/26 02:17:31;;;;;;;;;;;;;;;-144.99;100.00;52623.38;5007931;28;19947;-70
2022/12/26 02:20:02;;;;;;;;;;;;;;;-144.99;100.00;52613.19;5014107;28;20188;-70
2022/12/26 02:22:47;;;;;;;;;;;;;;;-144.99;100.00;52635.63;5021988;28;19952;-70
2022/12/26 02:25:25;;;;;;;;;;;;;;;-144.99;100.00;52584.66;5007908;28;21284;-69
2022/12/26 02:28:14;;;;;;;;;;;;;;;-144.99;100.00;52625.44;5008222;28;20361;-68
2022/12/26 02:30:44;;;;;;;;;;;;;;;-144.99;100.00;52627.47;5005927;28;19978;-68
2022/12/26 02:33:18;;;;;;;;;;;;;;;-144.99;100.00;52629.50;5005328;28;19996;-65
2022/12/26 02:35:51;;;;;;;;;;;;;;;-144.99;100.00;52623.38;5001639;28;20004;-66
2022/12/26 02:38:27;;;;;;;;;;;;;;;-144.99;100.00;52617.28;5008681;28;19992;-66
2022/12/26 02:41:01;;;;;;;;;;;;;;;-144.99;100.00;52594.84;5008289;28;19966;-66
2022/12/26 02:43:34;;;;;;;;;;;;;;;-144.99;100.00;52621.34;5005804;28;19943;-66
2022/12/26 02:48:55;;;;;;;;;;;;;;;-144.99;100.00;52594.84;5004102;28;19979;-66
2022/12/26 03:13:45;;;;;;;;;;;;;;;-144.99;100.00;52603.00;5004363;28;20019;-68
2022/12/26 03:19:01;;;;;;;;;;;;;;;-144.99;100.00;52615.25;5005801;28;19973;-68
2022/12/26 03:21:30;;;;;;;;;;;;;;;-144.99;100.00;52603.00;5004897;28;19961;-63
2022/12/26 03:23:57;;;;;;;;;;;;;;;-144.99;100.00;52635.63;5012003;28;19994;-63
2022/12/26 03:26:41;;;;;;;;;;;;;;;-144.99;100.00;52615.25;5010875;28;20527;-63
2022/12/26 03:31:53;;;;;;;;;;;;;;;-144.99;100.00;52611.16;5011420;28;20007;-63
2022/12/26 03:34:21;;;;;;;;;;;;;;;-144.99;100.00;52651.94;5009828;28;20000;-63
2022/12/26 03:36:56;;;;;;;;;;;;;;;-144.99;100.00;52623.38;5013300;28;20011;-63
2022/12/26 04:19:22;;;;;;;;;;;;;;;-144.99;100.00;52619.31;5008581;28;20027;-63
2022/12/26 04:46:19;;;;;;;;;;;;;;;-144.99;100.00;52647.84;5011607;28;20094;-65
2022/12/26 04:51:31;;;;;;;;;;;;;;;-144.99;100.00;52619.31;5008361;28;19995;-61
2022/12/26 04:53:58;;;;;;;;;;;;;;;-144.99;100.00;52615.25;5004346;28;19941;-61
2022/12/26 04:56:26;;;;;;;;;;;;;;;-144.99;100.00;52627.47;5007223;28;20895;-66
2022/12/26 04:58:52;;;;;;;;;;;;;;;-144.99;100.00;52598.94;5007041;28;19955;-67
2022/12/26 05:09:34;;;;;;;;;;;;;;;-144.99;100.00;52596.88;5006673;28;19976;-69
2022/12/26 05:12:02;;;;;;;;;;;;;;;-144.99;100.00;52611.16;5005830;28;19956;-69
2022/12/26 05:14:30;;;;;;;;;;;;;;;-144.99;100.00;52592.81;5008027;28;20009;-70
2022/12/26 05:30:44;;;;;;;;;;;;;;;-144.99;100.00;52619.31;5007870;28;19947;-70
2022/12/26 05:35:55;;;;;;;;;;;;;;;-144.99;100.00;52627.47;5004808;28;19946;-70
2022/12/26 05:38:22;;;;;;;;;;;;;;;-144.99;100.00;52615.25;5008918;28;19945;-70
2022/12/26 05:40:48;;;;;;;;;;;;;;;-144.99;100.00;52643.78;5008847;28;19965;-70
2022/12/26 05:43:17;;;;;;;;;;;;;;;-144.99;100.00;52635.63;5007730;28;20362;-70
2022/12/26 05:45:44;;;;;;;;;;;;;;;-144.99;100.00;52598.94;5009832;28;20036;-74
2022/12/26 05:48:10;;;;;;;;;;;;;;;-144.99;100.00;52598.94;5009452;28;20098;-71
2022/12/26 05:50:37;;;;;;;;;;;;;;;-144.99;100.00;52594.84;5008377;28;19970;-65
2022/12/26 05:53:03;;;;;;;;;;;;;;;-144.99;100.00;52603.00;5004849;28;19946;-65
2022/12/26 05:55:30;;;;;;;;;;;;;;;-144.99;100.00;52615.25;5008781;28;19946;-65
2022/12/26 05:57:59;;;;;;;;;;;;;;;-144.99;100.00;52615.25;5008097;28;19946;-65
2022/12/26 06:00:28;;;;;;;;;;;;;;;-144.99;100.00;52594.84;5006587;28;19964;-64
2022/12/26 06:02:54;;;;;;;;;;;;;;;-144.99;100.00;52578.53;5007292;28;20393;-64
2022/12/26 06:05:21;;;;;;;;;;;;;;;-144.99;100.00;52594.84;5006290;28;20367;-64
2022/12/26 06:07:47;;;;;;;;;;;;;;;-144.99;100.00;52578.53;5006389;28;19950;-67
2022/12/26 06:10:14;;;;;;;;;;;;;;;-144.99;100.00;52645.81;5006554;28;20005;-64
2022/12/26 06:12:40;;;;;;;;;;;;;;;-144.99;100.00;52586.69;5003395;28;19942;-62
2022/12/26 06:15:07;;;;;;;;;;;;;;;-144.99;100.00;52625.44;5008038;28;20009;-63
2022/12/26 06:17:35;;;;;;;;;;;;;;;-144.99;100.00;52586.69;5001161;28;20011;-63
2022/12/26 06:20:02;;;;;;;;;;;;;;;-144.99;100.00;52621.34;5004877;28;19965;-62
2022/12/26 06:22:28;;;;;;;;;;;;;;;-144.99;100.00;52619.31;5003701;28;19946;-63
2022/12/26 06:24:55;;;;;;;;;;;;;;;-144.99;100.00;52578.53;5006113;28;20025;-63
2022/12/26 06:27:21;;;;;;;;;;;;;;;-144.99;100.00;52647.84;5004148;28;20453;-71
2022/12/26 06:29:48;;;;;;;;;;;;;;;-144.99;100.00;52635.63;5008057;28;19957;-71
2022/12/26 06:32:14;;;;;;;;;;;;;;;-144.99;100.00;52607.09;4996546;28;20016;-71
2022/12/26 06:34:42;;;;;;;;;;;;;;;-144.99;100.00;52619.31;5008508;28;20408;-70
2022/12/26 06:37:09;;;;;;;;;;;;;;;-144.99;100.00;52607.09;5006416;28;19957;-70
2022/12/26 06:39:35;;;;;;;;;;;;;;;-144.99;100.00;52629.50;5007452;28;20280;-72
2022/12/26 06:42:04;;;;;;;;;;;;;;;-144.99;100.00;52592.81;5004254;28;19964;-72
2022/12/26 06:44:30;;;;;;;;;;;;;;;-144.99;100.00;52600.97;5004838;28;20022;-73
2022/12/26 06:46:57;;;;;;;;;;;;;;;-144.99;100.00;52611.16;5006122;28;19942;-70
2022/12/26 06:49:25;;;;;;;;;;;;;;;-144.99;100.00;52613.19;5006667;28;19969;-70
2022/12/26 06:51:52;;;;;;;;;;;;;;;-144.99;100.00;52623.38;5000619;28;20201;-70
2022/12/26 06:54:19;;;;;;;;;;;;;;;-144.99;100.00;52603.00;5001518;28;19948;-70
2022/12/26 06:59:22;;;;;;;;;;;;;;;-144.99;100.00;52586.69;4980714;28;19964;-70
2022/12/26 07:01:48;;;;;;;;;;;;;;;-144.99;100.00;52611.16;4989418;28;19965;-69
2022/12/26 07:04:15;;;;;;;;;;;;;;;-144.99;100.00;52598.94;4988414;28;20427;-69
2022/12/26 07:06:41;;;;;;;;;;;;;;;-144.99;100.00;52550.00;4985533;28;19940;-69
2022/12/26 07:09:13;;;;;;;;;;;;;;;-144.99;100.00;52627.47;4988248;28;19962;-70
2022/12/26 07:11:40;;;;;;;;;;;;;;;-144.99;100.00;52600.97;4985439;28;20219;-70
2022/12/26 07:14:07;;;;;;;;;;;;;;;-144.99;100.00;52623.38;4983191;28;19947;-70
2022/12/26 07:16:34;;;;;;;;;;;;;;;-144.99;100.00;52584.66;4984977;28;19949;-68
2022/12/26 07:19:01;;;;;;;;;;;;;;;-144.99;100.00;52639.69;4991102;28;19959;-69
2022/12/26 07:21:27;;;;;;;;;;;;;;;-144.99;100.00;52611.16;5010751;28;19988;-69
2022/12/26 07:23:55;;;;;;;;;;;;;;;-144.99;100.00;52607.09;4990196;28;19943;-65
2022/12/26 07:26:24;;;;;;;;;;;;;;;-144.99;100.00;52586.69;4976615;28;20428;-66
2022/12/26 07:28:53;;;;;;;;;;;;;;;-144.99;100.00;52582.63;4983788;28;19955;-65
2022/12/26 07:31:20;;;;;;;;;;;;;;;-144.99;100.00;52603.00;4986974;28;19947;-65
2022/12/26 07:33:47;;;;;;;;;;;;;;;-144.99;100.00;52584.66;4981353;28;19956;-66
2022/12/26 07:36:16;;;;;;;;;;;;;;;-144.99;100.00;52541.84;4989081;28;20180;-64
2022/12/26 07:38:42;;;;;;;;;;;;;;;-144.99;100.00;52621.34;4988293;28;20124;-71
2022/12/26 07:43:51;;;;;;;;;;;;;;;-144.99;100.00;52562.25;4980830;28;19945;-73
2022/12/26 07:46:18;;;;;;;;;;;;;;;-144.99;100.00;52619.31;4985950;28;19946;-73
2022/12/26 07:48:45;;;;;;;;;;;;;;;-144.99;100.00;52605.03;4986226;28;20062;-72
2022/12/26 07:51:12;;;;;;;;;;;;;;;-144.99;100.00;52586.69;4991711;28;19946;-74
2022/12/26 07:53:38;;;;;;;;;;;;;;;-144.99;100.00;52596.88;4983922;28;19943;-72
2022/12/26 07:56:05;;;;;;;;;;;;;;;-144.99;100.00;52615.25;4989211;28;19950;-73
2022/12/26 07:58:32;;;;;;;;;;;;;;;-144.99;100.00;52639.69;4985896;28;20027;-63
2022/12/26 08:01:02;;;;;;;;;;;;;;;-144.99;100.00;52590.78;5003615;28;19988;-65
2022/12/26 08:03:28;;;;;;;;;;;;;;;-144.99;100.00;52615.25;4995793;28;20093;-64
2022/12/26 08:05:55;;;;;;;;;;;;;;;-144.99;100.00;52550.00;4988989;28;20000;-65
2022/12/26 08:08:22;;;;;;;;;;;;;;;-144.99;100.00;52619.31;4990984;28;19955;-64
2022/12/26 08:10:48;;;;;;;;;;;;;;;-144.99;100.00;52582.63;4990489;28;20470;-64
2022/12/26 08:13:15;;;;;;;;;;;;;;;-144.99;100.00;52631.53;4984987;28;20472;-64
2022/12/26 08:15:42;;;;;;;;;;;;;;;-144.99;100.00;52627.47;4988483;28;19962;-67
2022/12/26 08:18:10;;;;;;;;;;;;;;;-144.99;100.00;52588.75;4984984;28;19950;-67
2022/12/26 08:20:36;;;;;;;;;;;;;;;-144.99;100.00;52598.94;4984652;28;19956;-70
2022/12/26 08:23:03;;;;;;;;;;;;;;;-144.99;100.00;52598.94;4983638;28;19948;-71
2022/12/26 08:25:29;;;;;;;;;;;;;;;-144.99;100.00;52647.84;4988993;28;19939;-72
2022/12/26 08:27:56;;;;;;;;;;;;;;;-144.99;100.00;52558.16;4986534;28;19946;-71
2022/12/26 08:30:23;;;;;;;;;;;;;;;-144.99;100.00;52623.38;4984646;28;19961;-70
2022/12/26 08:32:51;;;;;;;;;;;;;;;-144.99;100.00;52607.09;4985033;28;20003;-71
2022/12/26 08:35:19;;;;;;;;;;;;;;;-144.99;100.00;52596.88;4986204;28;20481;-71
2022/12/26 08:37:46;;;;;;;;;;;;;;;-144.99;100.00;52586.69;4982809;28;19946;-73
2022/12/26 08:40:13;;;;;;;;;;;;;;;-144.99;100.00;52619.31;4993176;28;19975;-71
2022/12/26 08:42:40;;;;;;;;;;;;;;;-144.99;100.00;52580.59;4998890;28;19965;-70
2022/12/26 08:45:07;;;;;;;;;;;;;;;-144.99;100.00;52594.84;4991684;28;19951;-70
2022/12/26 08:47:33;;;;;;;;;;;;;;;-144.99;100.00;52603.00;4991065;28;19952;-71
2022/12/26 08:50:00;;;;;;;;;;;;;;;-144.99;100.00;52615.25;4992504;28;19971;-71
2022/12/26 08:52:28;;;;;;;;;;;;;;;-144.99;100.00;52609.13;4990573;28;19949;-70
2022/12/26 08:54:54;;;;;;;;;;;;;;;-144.99;100.00;52592.81;4987506;28;19942;-71
2022/12/26 08:57:21;;;;;;;;;;;;;;;-144.99;100.00;52590.78;4977802;28;20400;-70
2022/12/26 08:59:48;;;;;;;;;;;;;;;-144.99;100.00;52615.25;4983682;28;20033;-71
2022/12/26 09:02:14;;;;;;;;;;;;;;;-144.99;100.00;52627.47;4992096;28;20014;-72
2022/12/26 09:04:41;;;;;;;;;;;;;;;-144.99;100.00;52586.69;4977723;28;20409;-72
2022/12/26 09:07:08;;;;;;;;;;;;;;;-144.99;100.00;52582.63;4981534;28;20003;-71
2022/12/26 09:09:36;;;;;;;;;;;;;;;-144.99;100.00;52603.00;4986539;28;19961;-71
2022/12/26 09:12:02;;;;;;;;;;;;;;;-144.99;100.00;52598.94;4983345;28;20484;-72
2022/12/26 09:14:29;;;;;;;;;;;;;;;-144.99;100.00;52594.84;4989607;28;19951;-71
2022/12/26 09:16:56;;;;;;;;;;;;;;;-144.99;100.00;52545.94;4987167;28;19942;-72
2022/12/26 09:19:23;;;;;;;;;;;;;;;-144.99;100.00;52611.16;4987076;28;19968;-72
2022/12/26 09:22:49;;;;;;;;;;;;;;;-144.99;100.00;52566.31;4994743;28;19977;-72
2022/12/26 09:24:39;;;;;;;;;;;;;;;-144.99;100.00;52582.63;5003423;28;19980;-72
2022/12/26 09:27:06;;;;;;;;;;;;;;;-144.99;100.00;52643.78;4983717;28;20406;-73
2022/12/26 09:29:33;;;;;;;;;;;;;;;-144.99;100.00;52637.66;4980342;28;19966;-73
2022/12/26 09:31:59;;;;;;;;;;;;;;;-144.99;100.00;52578.53;4981285;28;19959;-73
2022/12/26 09:34:26;;;;;;;;;;;;;;;-144.99;100.00;52598.94;4986545;28;20319;-72
2022/12/26 09:36:52;;;;;;;;;;;;;;;-144.99;100.00;52558.16;4993471;28;19946;-72
2022/12/26 09:39:19;;;;;;;;;;;;;;;-144.99;100.00;52598.94;4992548;28;19992;-72
2022/12/26 09:41:54;;;;;;;;;;;;;;;-144.99;100.00;52590.78;4987838;28;19984;-72
2022/12/26 09:44:23;;;;;;;;;;;;;;;-144.99;100.00;52621.34;5000201;28;19986;-73
2022/12/26 09:46:54;;;;;;;;;;;;;;;-144.99;100.00;52572.44;4988491;28;19956;-73
2022/12/26 09:49:22;;;;;;;;;;;;;;;-144.99;100.00;52598.94;4993590;28;19959;-73
2022/12/26 09:51:51;;;;;;;;;;;;;;;-144.99;100.00;52613.19;4992512;28;19958;-73
2022/12/26 09:54:19;;;;;;;;;;;;;;;-144.99;100.00;52590.78;4978856;28;20006;-74
2022/12/26 09:56:46;;;;;;;;;;;;;;;-144.99;100.00;52639.69;4989698;28;19945;-72
2022/12/26 09:59:15;;;;;;;;;;;;;;;-144.99;100.00;52566.31;4985300;28;19972;-70
2022/12/26 10:01:42;;;;;;;;;;;;;;;-144.99;100.00;52582.63;4985446;28;20144;-67
2022/12/26 10:04:15;;;;;;;;;;;;;;;-144.99;100.00;52603.00;4988105;28;19948;-66
2022/12/26 10:06:48;;;;;;;;;;;;;;;-144.99;100.00;52615.25;4635691;28;10000055;-70
2022/12/26 10:09:20;;;;;;;;;;;;;;;-144.99;100.00;52631.53;4985537;28;19967;-70
2022/12/26 10:11:53;;;;;;;;;;;;;;;-144.99;100.00;52570.38;4982862;28;20271;-70
2022/12/26 10:14:38;;;;;;;;;;;;;;;-144.99;100.00;52582.63;4987248;28;20549;-71
2022/12/26 10:17:08;;;;;;;;;;;;;;;-144.99;100.00;52619.31;4986502;28;20168;-71
2022/12/26 10:19:44;;;;;;;;;;;;;;;-144.99;100.00;52584.66;4981905;28;19972;-70
2022/12/26 10:22:23;;;;;;;;;;;;;;;-144.99;100.00;52580.59;4983884;28;19961;-70
2022/12/26 10:24:50;;;;;;;;;;;;;;;-144.99;100.00;52590.78;4983626;28;19948;-70
2022/12/26 10:27:18;;;;;;;;;;;;;;;-144.99;100.00;52576.50;4985663;28;19941;-71
2022/12/26 10:29:48;;;;;;;;;;;;;;;-144.99;100.00;52586.69;4986771;28;19953;-70
2022/12/26 10:32:18;;;;;;;;;;;;;;;-144.99;100.00;52578.53;4986729;28;20397;-71
2022/12/26 10:34:45;;;;;;;;;;;;;;;-144.99;100.00;52578.53;4987377;28;20153;-71
2022/12/26 10:37:16;;;;;;;;;;;;;;;-144.99;100.00;52574.47;4987166;28;19951;-70
2022/12/26 10:39:45;;;;;;;;;;;;;;;-144.99;100.00;52554.09;4985735;28;20436;-70
2022/12/26 10:42:15;;;;;;;;;;;;;;;-144.99;100.00;52558.16;4985080;28;19960;-70
2022/12/26 10:44:41;;;;;;;;;;;;;;;-144.99;100.00;52545.94;4975142;28;20124;-71
2022/12/26 10:47:16;;;;;;;;;;;;;;;-144.99;100.00;52554.09;4976250;28;19950;-70
2022/12/26 10:49:44;;;;;;;;;;;;;;;-144.99;100.00;52578.53;4981784;28;19964;-71
2022/12/26 10:52:11;;;;;;;;;;;;;;;-144.99;100.00;52580.59;4984928;28;19953;-70
2022/12/26 10:54:38;;;;;;;;;;;;;;;-144.99;100.00;52611.16;4984724;28;19955;-70
2022/12/26 10:57:07;;;;;;;;;;;;;;;-144.99;100.00;52586.69;4985372;28;20551;-71
2022/12/26 10:59:39;;;;;;;;;;;;;;;-144.99;100.00;52578.53;4981637;28;19957;-71
2022/12/26 11:02:15;;;;;;;;;;;;;;;-144.99;100.00;52611.16;4980007;28;19969;-71
2022/12/26 11:04:57;;;;;;;;;;;;;;;-144.99;100.00;52627.47;4979729;28;19943;-70
2022/12/26 11:07:25;;;;;;;;;;;;;;;-144.99;100.00;52625.44;4977217;28;20418;-70
2022/12/26 11:09:54;;;;;;;;;;;;;;;-144.99;100.00;52582.63;4983255;28;20057;-69
2022/12/26 11:12:24;;;;;;;;;;;;;;;-144.99;100.00;52582.63;4984466;28;20559;-70
2022/12/26 11:14:56;;;;;;;;;;;;;;;-144.99;100.00;52600.97;4982683;28;19941;-70
2022/12/26 11:17:29;;;;;;;;;;;;;;;-144.99;100.00;52584.66;4982992;28;19945;-70
2022/12/26 11:20:13;;;;;;;;;;;;;;;-144.99;100.00;52582.63;4986747;28;19992;-70
2022/12/26 11:22:40;;;;;;;;;;;;;;;-144.99;100.00;52570.38;4975132;28;19975;-70
2022/12/26 11:25:17;;;;;;;;;;;;;;;-144.99;100.00;52590.78;4986466;28;20403;-70
2022/12/26 11:27:45;;;;;;;;;;;;;;;-144.99;100.00;52611.16;4984091;28;19950;-69
2022/12/26 11:30:28;;;;;;;;;;;;;;;-144.99;100.00;52582.63;4983398;28;20347;-71
2022/12/26 11:33:12;;;;;;;;;;;;;;;-144.99;100.00;52603.00;4983759;28;19945;-70
2022/12/26 11:35:46;;;;;;;;;;;;;;;-144.99;100.00;52586.69;4987555;28;20412;-69
2022/12/26 11:38:33;;;;;;;;;;;;;;;-144.99;100.00;52619.31;4979192;28;19947;-69
2022/12/26 11:43:45;;;;;;;;;;;;;;;-144.99;100.00;52594.84;4987905;28;19994;-69
2022/12/26 11:46:11;;;;;;;;;;;;;;;-144.99;100.00;52594.84;4986733;28;19948;-70
2022/12/26 11:48:40;;;;;;;;;;;;;;;-144.99;100.00;52582.63;4983613;28;20056;-69
2022/12/26 11:51:07;;;;;;;;;;;;;;;-144.99;100.00;52603.00;4987429;28;20064;-70
2022/12/26 11:53:35;;;;;;;;;;;;;;;-144.99;100.00;52600.97;4987849;28;19949;-71
2022/12/26 11:56:03;;;;;;;;;;;;;;;-144.99;100.00;52598.94;4987240;28;20055;-70
2022/12/26 11:58:30;;;;;;;;;;;;;;;-144.99;100.00;52623.38;4986944;28;20019;-70
2022/12/26 12:01:04;;;;;;;;;;;;;;;-144.99;100.00;52603.00;4987386;28;20324;-70
2022/12/26 12:03:32;;;;;;;;;;;;;;;-144.99;100.00;52619.31;4986405;28;20080;-70
2022/12/26 12:06:03;;;;;;;;;;;;;;;-144.99;100.00;52607.09;4990465;28;20000;-67
2022/12/26 12:08:37;;;;;;;;;;;;;;;-144.99;100.00;52590.78;4980734;28;19953;-71
2022/12/26 12:11:08;;;;;;;;;;;;;;;-144.99;100.00;52660.09;4989621;28;20489;-69
2022/12/26 12:13:46;;;;;;;;;;;;;;;-144.99;100.00;52594.84;4984167;28;19990;-69
2022/12/26 12:16:23;;;;;;;;;;;;;;;-144.99;100.00;52607.09;4977077;28;19944;-69
2022/12/26 12:18:54;;;;;;;;;;;;;;;-144.99;100.00;52570.38;4981905;28;19965;-70
2022/12/26 12:21:29;;;;;;;;;;;;;;;-144.99;100.00;52562.25;4988986;28;20248;-70
2022/12/26 12:24:04;;;;;;;;;;;;;;;-144.99;100.00;52607.09;4985253;28;19972;-69
2022/12/26 12:26:34;;;;;;;;;;;;;;;-144.99;100.00;52578.53;4986577;28;20601;-69
2022/12/26 12:29:12;;;;;;;;;;;;;;;-144.99;100.00;52635.63;4984171;28;20046;-69
2022/12/26 12:31:45;;;;;;;;;;;;;;;-144.99;100.00;52607.09;4980034;28;19939;-70
2022/12/26 12:34:19;;;;;;;;;;;;;;;-144.99;100.00;52590.78;4984016;28;19946;-71
2022/12/26 12:36:54;;;;;;;;;;;;;;;-144.99;100.00;52647.84;4969232;28;19940;-70
2022/12/26 12:39:25;;;;;;;;;;;;;;;-144.99;100.00;52590.78;4983931;28;20396;-69
2022/12/26 12:42:05;;;;;;;;;;;;;;;-144.99;100.00;52607.09;4983769;28;19946;-69
2022/12/26 12:44:42;;;;;;;;;;;;;;;-144.99;100.00;52651.94;4983014;28;19953;-69
2022/12/26 12:47:14;;;;;;;;;;;;;;;-144.99;100.00;52607.09;4985096;28;20012;-70
2022/12/26 12:49:51;;;;;;;;;;;;;;;-144.99;100.00;52594.84;4978990;28;20152;-70
2022/12/26 12:52:26;;;;;;;;;;;;;;;-144.99;100.00;52627.47;4977328;28;19950;-69
2022/12/26 12:55:14;;;;;;;;;;;;;;;-144.99;100.00;52598.94;4982460;28;19949;-70
2022/12/26 12:57:43;;;;;;;;;;;;;;;-144.99;100.00;52615.25;4955638;28;20435;-69
2022/12/26 13:00:15;;;;;;;;;;;;;;;-144.99;100.00;52611.16;4982861;23;19969;-72
2022/12/26 13:02:45;;;;;;;;;;;;;;;-144.99;100.00;52562.25;4983100;28;20004;-73
2022/12/26 13:05:17;;;;;;;;;;;;;;;-144.99;99.66;52635.63;4982592;28;20360;-72
2022/12/26 13:07:47;;;;;;;;;;;;;;;-144.99;96.61;52623.38;4978122;28;19938;-72
2022/12/26 13:10:18;;;;;;;;;;;;;;;-144.99;93.82;52607.09;4961485;28;19962;-71
2022/12/26 13:12:47;;;;;;;;;;;;;;;-144.99;92.72;52611.16;4958565;28;19982;-74
2022/12/26 13:15:19;;;;;;;;;;;;;;;-144.99;92.96;52578.53;4973111;28;19949;-71
2022/12/26 13:17:52;;;;;;;;;;;;;;;-144.99;93.08;52619.31;4975059;28;19942;-72
2022/12/26 13:20:21;;;;;;;;;;;;;;;-144.99;93.11;52615.25;4953540;28;19962;-72
2022/12/26 13:25:44;;;;;;;;;;;;;;;-144.99;100.00;52627.47;4955467;28;20217;-72
2022/12/26 13:28:14;;;;;;;;;;;;;;;-144.99;100.00;52668.22;4958795;28;19989;-72
2022/12/26 13:30:40;;;;;;;;;;;;;;;-144.99;100.00;52592.81;4964601;28;19938;-72
2022/12/26 13:33:14;;;;;;;;;;;;;;;-144.99;100.00;52627.47;4959384;28;19995;-72
2022/12/26 13:35:51;;;;;;;;;;;;;;;-144.99;100.00;52643.78;4971680;28;19945;-73
2022/12/26 13:38:19;;;;;;;;;;;;;;;-144.99;100.00;52572.44;4961198;28;19949;-72
2022/12/26 13:40:47;;;;;;;;;;;;;;;-144.99;100.00;52645.81;4959851;28;19949;-72
2022/12/26 13:46:01;;;;;;;;;;;;;;;-144.99;100.00;52619.31;4967884;28;20099;-73
2022/12/26 13:48:46;;;;;;;;;;;;;;;-144.99;100.00;52627.47;4958955;28;20342;-73
2022/12/26 13:51:27;;;;;;;;;;;;;;;-144.99;100.00;52639.69;4960936;28;20017;-73
2022/12/26 13:53:59;;;;;;;;;;;;;;;-144.99;100.00;52647.84;4967018;28;19964;-73
2022/12/26 13:56:41;;;;;;;;;;;;;;;-144.99;100.00;52619.31;4978871;28;19942;-73
2022/12/26 13:59:13;;;;;;;;;;;;;;;-144.99;100.00;52662.13;4958963;28;19965;-73
2022/12/26 14:01:47;;;;;;;;;;;;;;;-144.99;100.00;52656.00;4960049;28;19972;-72
2022/12/26 14:04:30;;;;;;;;;;;;;;;-144.99;100.00;52645.81;4965863;28;20287;-72
2022/12/26 14:07:12;;;;;;;;;;;;;;;-144.99;100.00;52639.69;4979132;28;20043;-72
2022/12/26 14:09:57;;;;;;;;;;;;;;;-144.99;100.00;52643.78;4951268;29;20396;-73
2022/12/26 14:12:46;;;;;;;;;;;;;;;-144.99;100.00;52668.22;4959199;28;19941;-73
2022/12/26 14:15:19;;;;;;;;;;;;;;;-144.99;100.00;52613.19;4963864;28;19963;-72
2022/12/26 14:17:51;;;;;;;;;;;;;;;-144.99;100.00;52660.09;4970067;28;20011;-72
2022/12/26 14:20:24;;;;;;;;;;;;;;;-144.99;100.00;52639.69;4964821;28;20001;-72
2022/12/26 14:22:59;;;;;;;;;;;;;;;-144.99;100.00;52635.63;4955185;28;19968;-72
2022/12/26 14:25:29;;;;;;;;;;;;;;;-144.99;100.00;52664.16;4954617;28;19959;-72
2022/12/26 14:28:02;;;;;;;;;;;;;;;-144.99;100.00;52682.50;4977634;28;19945;-71
2022/12/26 14:30:30;;;;;;;;;;;;;;;-144.99;100.00;52664.16;4955526;28;20330;-71
2022/12/26 14:33:20;;;;;;;;;;;;;;;-144.99;100.00;52643.78;4962426;28;19948;-70
2022/12/26 14:35:56;;;;;;;;;;;;;;;-144.99;100.00;52653.97;4964898;28;20264;-72
2022/12/26 14:38:28;;;;;;;;;;;;;;;-144.99;100.00;52664.16;4978949;28;19966;-71
2022/12/26 14:41:01;;;;;;;;;;;;;;;-144.99;100.00;52643.78;4973256;28;19969;-71
2022/12/26 14:43:45;;;;;;;;;;;;;;;-144.99;100.00;52649.88;4959871;28;19984;-71
2022/12/26 14:46:27;;;;;;;;;;;;;;;-144.99;100.00;52662.13;4963597;28;20081;-71
2022/12/26 14:48:55;;;;;;;;;;;;;;;-144.99;100.00;52653.97;4969224;28;19962;-72
2022/12/26 14:51:43;;;;;;;;;;;;;;;-144.99;100.00;52668.22;4967353;28;20356;-71